sensor_id;sensor_type;location;lat;lon;timestamp;P1;durP1;ratioP1;P2;durP2;ratioP2
81124;SDS011;72192;52.114;5.424;2023-08-17T00:01:58;7.18;;;2.38;;
81124;SDS011;72192;52.114;5.424;2023-08-17T00:04:46;5.32;;;2.25;;
81124;SDS011;72192;52.114;5.424;2023-08-17T00:07:34;7.43;;;2.17;;
81124;SDS011;72192;52.114;5.424;2023-08-17T00:10:23;5.53;;;2.17;;
81124;SDS011;72192;52.114;5.424;2023-08-17T00:13:11;6.43;;;2.45;;
81124;SDS011;72192;52.114;5.424;2023-08-17T00:16:00;6.22;;;2.47;;
81124;SDS011;72192;52.114;5.424;2023-08-17T00:18:49;8.30;;;2.30;;
81124;SDS011;72192;52.114;5.424;2023-08-17T00:21:37;6.78;;;2.10;;
81124;SDS011;72192;52.114;5.424;2023-08-17T00:24:25;6.47;;;2.58;;
81124;SDS011;72192;52.114;5.424;2023-08-17T00:27:13;5.45;;;2.40;;
81124;SDS011;72192;52.114;5.424;2023-08-17T00:30:01;6.55;;;2.67;;
81124;SDS011;72192;52.114;5.424;2023-08-17T00:32:50;7.45;;;2.60;;
81124;SDS011;72192;52.114;5.424;2023-08-17T00:35:38;8.50;;;2.60;;
81124;SDS011;72192;52.114;5.424;2023-08-17T00:38:27;7.75;;;2.50;;
81124;SDS011;72192;52.114;5.424;2023-08-17T00:41:15;6.43;;;2.35;;
81124;SDS011;72192;52.114;5.424;2023-08-17T00:46:51;5.93;;;2.70;;
81124;SDS011;72192;52.114;5.424;2023-08-17T00:49:40;6.70;;;2.50;;
81124;SDS011;72192;52.114;5.424;2023-08-17T00:52:28;5.13;;;2.17;;
81124;SDS011;72192;52.114;5.424;2023-08-17T00:55:20;5.85;;;2.13;;
81124;SDS011;72192;52.114;5.424;2023-08-17T00:58:08;6.57;;;2.30;;
81124;SDS011;72192;52.114;5.424;2023-08-17T01:00:56;5.45;;;2.53;;
81124;SDS011;72192;52.114;5.424;2023-08-17T01:03:46;7.05;;;2.15;;
81124;SDS011;72192;52.114;5.424;2023-08-17T01:06:34;8.57;;;2.67;;
81124;SDS011;72192;52.114;5.424;2023-08-17T01:09:22;7.97;;;2.60;;
81124;SDS011;72192;52.114;5.424;2023-08-17T01:12:17;7.10;;;2.22;;
81124;SDS011;72192;52.114;5.424;2023-08-17T01:15:15;6.93;;;2.15;;
81124;SDS011;72192;52.114;5.424;2023-08-17T01:18:37;6.05;;;2.30;;
81124;SDS011;72192;52.114;5.424;2023-08-17T01:21:32;6.63;;;2.47;;
81124;SDS011;72192;52.114;5.424;2023-08-17T01:24:32;6.38;;;2.10;;
81124;SDS011;72192;52.114;5.424;2023-08-17T01:27:20;5.13;;;2.42;;
81124;SDS011;72192;52.114;5.424;2023-08-17T01:33:08;7.93;;;2.28;;
81124;SDS011;72192;52.114;5.424;2023-08-17T01:39:17;6.65;;;2.10;;
81124;SDS011;72192;52.114;5.424;2023-08-17T01:42:07;6.10;;;2.20;;
81124;SDS011;72192;52.114;5.424;2023-08-17T01:44:58;6.32;;;2.10;;
81124;SDS011;72192;52.114;5.424;2023-08-17T01:47:46;4.50;;;2.20;;
81124;SDS011;72192;52.114;5.424;2023-08-17T01:50:36;7.78;;;2.53;;
81124;SDS011;72192;52.114;5.424;2023-08-17T01:53:24;6.15;;;1.98;;
81124;SDS011;72192;52.114;5.424;2023-08-17T01:56:12;5.35;;;2.20;;
81124;SDS011;72192;52.114;5.424;2023-08-17T01:59:00;6.75;;;2.35;;
81124;SDS011;72192;52.114;5.424;2023-08-17T02:01:48;4.55;;;2.40;;
81124;SDS011;72192;52.114;5.424;2023-08-17T02:07:24;5.68;;;2.05;;
81124;SDS011;72192;52.114;5.424;2023-08-17T02:10:12;5.35;;;2.38;;
81124;SDS011;72192;52.114;5.424;2023-08-17T02:13:01;7.28;;;2.40;;
81124;SDS011;72192;52.114;5.424;2023-08-17T02:15:49;7.10;;;2.45;;
81124;SDS011;72192;52.114;5.424;2023-08-17T02:18:37;6.75;;;2.50;;
81124;SDS011;72192;52.114;5.424;2023-08-17T02:21:25;7.05;;;2.67;;
81124;SDS011;72192;52.114;5.424;2023-08-17T02:24:13;6.30;;;2.53;;
81124;SDS011;72192;52.114;5.424;2023-08-17T02:27:01;7.82;;;2.72;;
81124;SDS011;72192;52.114;5.424;2023-08-17T02:29:50;5.53;;;2.50;;
81124;SDS011;72192;52.114;5.424;2023-08-17T02:32:38;7.15;;;2.85;;
81124;SDS011;72192;52.114;5.424;2023-08-17T02:35:26;9.02;;;2.70;;
81124;SDS011;72192;52.114;5.424;2023-08-17T02:41:02;5.05;;;2.53;;
81124;SDS011;72192;52.114;5.424;2023-08-17T02:43:51;8.25;;;2.60;;
81124;SDS011;72192;52.114;5.424;2023-08-17T02:46:39;6.85;;;2.65;;
81124;SDS011;72192;52.114;5.424;2023-08-17T02:49:18;10.30;;;2.75;;
81124;SDS011;72192;52.114;5.424;2023-08-17T02:52:07;5.97;;;2.45;;
81124;SDS011;72192;52.114;5.424;2023-08-17T02:57:43;8.13;;;3.10;;
81124;SDS011;72192;52.114;5.424;2023-08-17T03:00:31;7.22;;;2.47;;
81124;SDS011;72192;52.114;5.424;2023-08-17T03:03:19;4.70;;;2.60;;
81124;SDS011;72192;52.114;5.424;2023-08-17T03:08:55;8.93;;;3.00;;
81124;SDS011;72192;52.114;5.424;2023-08-17T03:11:43;5.50;;;2.78;;
81124;SDS011;72192;52.114;5.424;2023-08-17T03:14:31;8.25;;;2.88;;
81124;SDS011;72192;52.114;5.424;2023-08-17T03:17:20;5.60;;;2.60;;
81124;SDS011;72192;52.114;5.424;2023-08-17T03:20:08;7.25;;;2.72;;
81124;SDS011;72192;52.114;5.424;2023-08-17T03:22:57;8.65;;;2.67;;
81124;SDS011;72192;52.114;5.424;2023-08-17T03:25:45;10.10;;;2.75;;
81124;SDS011;72192;52.114;5.424;2023-08-17T03:31:21;9.88;;;2.40;;
81124;SDS011;72192;52.114;5.424;2023-08-17T03:34:10;6.75;;;2.40;;
81124;SDS011;72192;52.114;5.424;2023-08-17T03:39:46;6.82;;;2.85;;
81124;SDS011;72192;52.114;5.424;2023-08-17T03:45:22;4.82;;;2.45;;
81124;SDS011;72192;52.114;5.424;2023-08-17T03:50:58;6.22;;;2.72;;
81124;SDS011;72192;52.114;5.424;2023-08-17T03:53:48;5.75;;;2.88;;
81124;SDS011;72192;52.114;5.424;2023-08-17T03:59:23;6.20;;;2.42;;
81124;SDS011;72192;52.114;5.424;2023-08-17T04:04:59;6.72;;;2.63;;
81124;SDS011;72192;52.114;5.424;2023-08-17T04:07:51;4.13;;;2.28;;
81124;SDS011;72192;52.114;5.424;2023-08-17T04:13:26;4.88;;;2.05;;
81124;SDS011;72192;52.114;5.424;2023-08-17T04:19:02;6.90;;;2.28;;
81124;SDS011;72192;52.114;5.424;2023-08-17T04:21:51;4.05;;;2.03;;
81124;SDS011;72192;52.114;5.424;2023-08-17T04:27:27;7.50;;;2.33;;
81124;SDS011;72192;52.114;5.424;2023-08-17T04:30:15;6.05;;;1.95;;
81124;SDS011;72192;52.114;5.424;2023-08-17T04:35:55;8.30;;;2.25;;
81124;SDS011;72192;52.114;5.424;2023-08-17T04:38:45;4.40;;;2.00;;
81124;SDS011;72192;52.114;5.424;2023-08-17T04:44:21;4.93;;;2.20;;
81124;SDS011;72192;52.114;5.424;2023-08-17T04:49:57;9.98;;;2.22;;
81124;SDS011;72192;52.114;5.424;2023-08-17T04:55:26;5.10;;;2.00;;
81124;SDS011;72192;52.114;5.424;2023-08-17T05:01:02;4.22;;;1.83;;
81124;SDS011;72192;52.114;5.424;2023-08-17T05:06:38;5.70;;;2.10;;
81124;SDS011;72192;52.114;5.424;2023-08-17T05:12:14;7.20;;;1.88;;
81124;SDS011;72192;52.114;5.424;2023-08-17T05:17:51;10.18;;;1.90;;
81124;SDS011;72192;52.114;5.424;2023-08-17T05:23:27;3.55;;;1.48;;
81124;SDS011;72192;52.114;5.424;2023-08-17T05:26:16;5.50;;;1.80;;
81124;SDS011;72192;52.114;5.424;2023-08-17T05:29:04;5.43;;;1.80;;
81124;SDS011;72192;52.114;5.424;2023-08-17T05:34:40;6.43;;;2.08;;
81124;SDS011;72192;52.114;5.424;2023-08-17T05:40:16;6.65;;;1.80;;
81124;SDS011;72192;52.114;5.424;2023-08-17T05:43:05;4.40;;;1.70;;
81124;SDS011;72192;52.114;5.424;2023-08-17T05:48:41;8.05;;;2.13;;
81124;SDS011;72192;52.114;5.424;2023-08-17T05:54:17;3.88;;;1.67;;
81124;SDS011;72192;52.114;5.424;2023-08-17T05:57:06;5.55;;;1.75;;
81124;SDS011;72192;52.114;5.424;2023-08-17T05:59:56;5.05;;;1.85;;
81124;SDS011;72192;52.114;5.424;2023-08-17T06:02:44;3.80;;;1.65;;
81124;SDS011;72192;52.114;5.424;2023-08-17T06:05:30;7.28;;;1.67;;
81124;SDS011;72192;52.114;5.424;2023-08-17T06:08:14;5.15;;;1.73;;
81124;SDS011;72192;52.114;5.424;2023-08-17T06:10:54;6.28;;;1.80;;
81124;SDS011;72192;52.114;5.424;2023-08-17T06:13:34;6.00;;;1.77;;
81124;SDS011;72192;52.114;5.424;2023-08-17T06:16:14;7.10;;;1.80;;
81124;SDS011;72192;52.114;5.424;2023-08-17T06:19:03;6.80;;;1.90;;
81124;SDS011;72192;52.114;5.424;2023-08-17T06:21:54;6.63;;;1.88;;
81124;SDS011;72192;52.114;5.424;2023-08-17T06:24:34;5.57;;;1.80;;
81124;SDS011;72192;52.114;5.424;2023-08-17T06:27:23;5.20;;;2.08;;
81124;SDS011;72192;52.114;5.424;2023-08-17T06:30:03;8.23;;;1.90;;
81124;SDS011;72192;52.114;5.424;2023-08-17T06:32:50;7.82;;;1.90;;
81124;SDS011;72192;52.114;5.424;2023-08-17T06:35:30;4.88;;;2.08;;
81124;SDS011;72192;52.114;5.424;2023-08-17T06:38:19;8.25;;;2.10;;
81124;SDS011;72192;52.114;5.424;2023-08-17T06:41:05;7.55;;;1.85;;
81124;SDS011;72192;52.114;5.424;2023-08-17T06:43:45;6.68;;;2.17;;
81124;SDS011;72192;52.114;5.424;2023-08-17T06:46:26;4.00;;;1.88;;
81124;SDS011;72192;52.114;5.424;2023-08-17T06:49:15;4.82;;;1.85;;
81124;SDS011;72192;52.114;5.424;2023-08-17T06:51:57;5.88;;;1.98;;
81124;SDS011;72192;52.114;5.424;2023-08-17T06:54:50;5.38;;;2.00;;
81124;SDS011;72192;52.114;5.424;2023-08-17T07:00:12;6.57;;;1.83;;
81124;SDS011;72192;52.114;5.424;2023-08-17T07:02:53;6.57;;;2.20;;
81124;SDS011;72192;52.114;5.424;2023-08-17T07:05:32;4.75;;;2.00;;
81124;SDS011;72192;52.114;5.424;2023-08-17T07:08:21;4.03;;;1.80;;
81124;SDS011;72192;52.114;5.424;2023-08-17T07:11:12;7.00;;;2.00;;
81124;SDS011;72192;52.114;5.424;2023-08-17T07:13:58;7.22;;;1.90;;
81124;SDS011;72192;52.114;5.424;2023-08-17T07:16:38;4.55;;;1.92;;
81124;SDS011;72192;52.114;5.424;2023-08-17T07:19:18;5.78;;;1.65;;
81124;SDS011;72192;52.114;5.424;2023-08-17T07:22:01;4.07;;;1.90;;
81124;SDS011;72192;52.114;5.424;2023-08-17T07:24:44;4.60;;;1.70;;
81124;SDS011;72192;52.114;5.424;2023-08-17T07:27:24;4.85;;;1.63;;
81124;SDS011;72192;52.114;5.424;2023-08-17T07:30:04;7.13;;;2.03;;
81124;SDS011;72192;52.114;5.424;2023-08-17T07:32:54;5.43;;;1.70;;
81124;SDS011;72192;52.114;5.424;2023-08-17T07:35:40;5.57;;;2.17;;
81124;SDS011;72192;52.114;5.424;2023-08-17T07:38:44;5.72;;;1.90;;
81124;SDS011;72192;52.114;5.424;2023-08-17T07:41:32;5.15;;;2.13;;
81124;SDS011;72192;52.114;5.424;2023-08-17T07:44:21;5.60;;;1.80;;
81124;SDS011;72192;52.114;5.424;2023-08-17T07:47:08;4.35;;;1.70;;
81124;SDS011;72192;52.114;5.424;2023-08-17T07:49:56;6.32;;;1.70;;
81124;SDS011;72192;52.114;5.424;2023-08-17T07:52:47;5.45;;;1.65;;
81124;SDS011;72192;52.114;5.424;2023-08-17T07:55:37;5.57;;;1.63;;
81124;SDS011;72192;52.114;5.424;2023-08-17T07:58:26;9.65;;;2.70;;
81124;SDS011;72192;52.114;5.424;2023-08-17T08:01:06;6.90;;;2.33;;
81124;SDS011;72192;52.114;5.424;2023-08-17T08:03:56;5.00;;;1.75;;
81124;SDS011;72192;52.114;5.424;2023-08-17T08:06:44;5.38;;;1.58;;
81124;SDS011;72192;52.114;5.424;2023-08-17T08:09:34;6.90;;;2.20;;
81124;SDS011;72192;52.114;5.424;2023-08-17T08:12:23;5.65;;;1.60;;
81124;SDS011;72192;52.114;5.424;2023-08-17T08:15:15;5.10;;;1.80;;
81124;SDS011;72192;52.114;5.424;2023-08-17T08:18:03;6.38;;;2.05;;
81124;SDS011;72192;52.114;5.424;2023-08-17T08:20:48;7.22;;;2.10;;
81124;SDS011;72192;52.114;5.424;2023-08-17T08:23:36;5.40;;;1.88;;
81124;SDS011;72192;52.114;5.424;2023-08-17T08:26:25;4.28;;;1.60;;
81124;SDS011;72192;52.114;5.424;2023-08-17T08:29:08;6.85;;;1.80;;
81124;SDS011;72192;52.114;5.424;2023-08-17T08:31:48;5.60;;;2.00;;
81124;SDS011;72192;52.114;5.424;2023-08-17T08:34:33;5.10;;;1.95;;
81124;SDS011;72192;52.114;5.424;2023-08-17T08:37:19;5.28;;;1.80;;
81124;SDS011;72192;52.114;5.424;2023-08-17T08:40:00;7.07;;;1.85;;
81124;SDS011;72192;52.114;5.424;2023-08-17T08:42:44;4.70;;;2.00;;
81124;SDS011;72192;52.114;5.424;2023-08-17T08:45:35;9.18;;;1.80;;
81124;SDS011;72192;52.114;5.424;2023-08-17T08:48:27;6.75;;;1.80;;
81124;SDS011;72192;52.114;5.424;2023-08-17T08:51:26;5.25;;;1.83;;
81124;SDS011;72192;52.114;5.424;2023-08-17T08:54:12;6.35;;;1.55;;
81124;SDS011;72192;52.114;5.424;2023-08-17T08:57:08;8.15;;;2.17;;
81124;SDS011;72192;52.114;5.424;2023-08-17T08:59:52;5.90;;;1.83;;
81124;SDS011;72192;52.114;5.424;2023-08-17T09:02:24;6.32;;;1.67;;
81124;SDS011;72192;52.114;5.424;2023-08-17T09:05:13;5.07;;;1.70;;
81124;SDS011;72192;52.114;5.424;2023-08-17T09:08:02;7.28;;;1.60;;
81124;SDS011;72192;52.114;5.424;2023-08-17T09:10:52;6.97;;;1.90;;
81124;SDS011;72192;52.114;5.424;2023-08-17T09:13:40;5.55;;;1.52;;
81124;SDS011;72192;52.114;5.424;2023-08-17T09:16:28;7.82;;;1.80;;
81124;SDS011;72192;52.114;5.424;2023-08-17T09:19:18;4.35;;;1.70;;
81124;SDS011;72192;52.114;5.424;2023-08-17T09:22:07;6.82;;;2.05;;
81124;SDS011;72192;52.114;5.424;2023-08-17T09:24:56;6.43;;;1.90;;
81124;SDS011;72192;52.114;5.424;2023-08-17T09:27:44;5.28;;;2.00;;
81124;SDS011;72192;52.114;5.424;2023-08-17T09:30:32;5.60;;;1.90;;
81124;SDS011;72192;52.114;5.424;2023-08-17T09:33:21;7.28;;;1.98;;
81124;SDS011;72192;52.114;5.424;2023-08-17T09:36:11;7.55;;;1.92;;
81124;SDS011;72192;52.114;5.424;2023-08-17T09:38:59;7.80;;;2.08;;
81124;SDS011;72192;52.114;5.424;2023-08-17T09:41:47;5.82;;;2.05;;
81124;SDS011;72192;52.114;5.424;2023-08-17T09:44:36;6.18;;;1.85;;
81124;SDS011;72192;52.114;5.424;2023-08-17T09:47:25;4.82;;;2.10;;
81124;SDS011;72192;52.114;5.424;2023-08-17T09:50:14;7.07;;;2.00;;
81124;SDS011;72192;52.114;5.424;2023-08-17T09:53:08;9.07;;;2.45;;
81124;SDS011;72192;52.114;5.424;2023-08-17T09:56:05;9.25;;;2.25;;
81124;SDS011;72192;52.114;5.424;2023-08-17T09:58:54;7.35;;;2.40;;
81124;SDS011;72192;52.114;5.424;2023-08-17T10:01:43;7.90;;;2.53;;
81124;SDS011;72192;52.114;5.424;2023-08-17T10:04:35;7.63;;;2.05;;
81124;SDS011;72192;52.114;5.424;2023-08-17T10:07:28;7.30;;;2.33;;
81124;SDS011;72192;52.114;5.424;2023-08-17T10:10:27;5.00;;;2.10;;
81124;SDS011;72192;52.114;5.424;2023-08-17T10:13:28;5.40;;;1.98;;
81124;SDS011;72192;52.114;5.424;2023-08-17T10:16:33;6.22;;;2.30;;
81124;SDS011;72192;52.114;5.424;2023-08-17T10:25:42;6.90;;;2.35;;
81124;SDS011;72192;52.114;5.424;2023-08-17T10:28:31;8.70;;;2.60;;
81124;SDS011;72192;52.114;5.424;2023-08-17T10:31:23;5.85;;;2.05;;
81124;SDS011;72192;52.114;5.424;2023-08-17T10:34:13;11.18;;;2.50;;
81124;SDS011;72192;52.114;5.424;2023-08-17T10:37:02;8.38;;;3.00;;
81124;SDS011;72192;52.114;5.424;2023-08-17T10:42:59;9.02;;;2.88;;
81124;SDS011;72192;52.114;5.424;2023-08-17T10:45:39;7.38;;;2.17;;
81124;SDS011;72192;52.114;5.424;2023-08-17T10:48:28;8.68;;;2.58;;
81124;SDS011;72192;52.114;5.424;2023-08-17T10:51:11;5.82;;;2.03;;
81124;SDS011;72192;52.114;5.424;2023-08-17T10:54:03;5.47;;;1.95;;
81124;SDS011;72192;52.114;5.424;2023-08-17T10:56:53;7.43;;;2.28;;
81124;SDS011;72192;52.114;5.424;2023-08-17T10:59:42;6.25;;;2.55;;
81124;SDS011;72192;52.114;5.424;2023-08-17T11:02:31;6.78;;;2.28;;
81124;SDS011;72192;52.114;5.424;2023-08-17T11:08:52;8.63;;;2.80;;
81124;SDS011;72192;52.114;5.424;2023-08-17T11:11:44;8.57;;;3.08;;
81124;SDS011;72192;52.114;5.424;2023-08-17T11:14:35;9.57;;;2.83;;
81124;SDS011;72192;52.114;5.424;2023-08-17T11:17:15;9.95;;;3.30;;
81124;SDS011;72192;52.114;5.424;2023-08-17T11:19:55;8.90;;;3.30;;
81124;SDS011;72192;52.114;5.424;2023-08-17T11:22:46;9.13;;;2.70;;
81124;SDS011;72192;52.114;5.424;2023-08-17T11:25:32;9.52;;;3.35;;
81124;SDS011;72192;52.114;5.424;2023-08-17T11:28:16;7.97;;;2.58;;
81124;SDS011;72192;52.114;5.424;2023-08-17T11:30:57;10.88;;;2.63;;
81124;SDS011;72192;52.114;5.424;2023-08-17T11:33:48;7.65;;;2.78;;
81124;SDS011;72192;52.114;5.424;2023-08-17T11:36:37;8.48;;;3.35;;
81124;SDS011;72192;52.114;5.424;2023-08-17T11:39:17;8.93;;;2.80;;
81124;SDS011;72192;52.114;5.424;2023-08-17T11:42:07;8.55;;;2.72;;
81124;SDS011;72192;52.114;5.424;2023-08-17T11:44:48;6.15;;;3.30;;
81124;SDS011;72192;52.114;5.424;2023-08-17T11:47:31;7.13;;;2.85;;
81124;SDS011;72192;52.114;5.424;2023-08-17T11:50:20;7.30;;;2.72;;
81124;SDS011;72192;52.114;5.424;2023-08-17T11:55:32;7.43;;;2.40;;
81124;SDS011;72192;52.114;5.424;2023-08-17T11:58:33;8.15;;;2.35;;
81124;SDS011;72192;52.114;5.424;2023-08-17T12:01:26;6.20;;;2.40;;
81124;SDS011;72192;52.114;5.424;2023-08-17T12:04:22;8.20;;;2.65;;
81124;SDS011;72192;52.114;5.424;2023-08-17T12:07:05;10.50;;;2.97;;
81124;SDS011;72192;52.114;5.424;2023-08-17T12:09:45;9.05;;;3.05;;
81124;SDS011;72192;52.114;5.424;2023-08-17T12:12:38;6.65;;;2.92;;
81124;SDS011;72192;52.114;5.424;2023-08-17T12:15:19;7.32;;;3.17;;
81124;SDS011;72192;52.114;5.424;2023-08-17T12:18:03;7.63;;;2.70;;
81124;SDS011;72192;52.114;5.424;2023-08-17T12:20:52;8.80;;;2.90;;
81124;SDS011;72192;52.114;5.424;2023-08-17T12:23:42;6.25;;;2.42;;
81124;SDS011;72192;52.114;5.424;2023-08-17T12:26:30;5.45;;;3.00;;
81124;SDS011;72192;52.114;5.424;2023-08-17T12:29:20;8.57;;;2.72;;
81124;SDS011;72192;52.114;5.424;2023-08-17T12:32:03;6.38;;;2.75;;
81124;SDS011;72192;52.114;5.424;2023-08-17T12:34:52;8.80;;;2.97;;
81124;SDS011;72192;52.114;5.424;2023-08-17T12:37:40;8.70;;;2.72;;
81124;SDS011;72192;52.114;5.424;2023-08-17T12:40:28;8.18;;;3.15;;
81124;SDS011;72192;52.114;5.424;2023-08-17T12:43:16;7.85;;;2.65;;
81124;SDS011;72192;52.114;5.424;2023-08-17T12:46:05;11.07;;;3.30;;
81124;SDS011;72192;52.114;5.424;2023-08-17T12:48:53;5.65;;;2.58;;
81124;SDS011;72192;52.114;5.424;2023-08-17T12:51:34;7.20;;;2.80;;
81124;SDS011;72192;52.114;5.424;2023-08-17T12:54:18;8.63;;;2.70;;
81124;SDS011;72192;52.114;5.424;2023-08-17T12:57:03;9.63;;;3.15;;
81124;SDS011;72192;52.114;5.424;2023-08-17T12:59:52;8.88;;;2.95;;
81124;SDS011;72192;52.114;5.424;2023-08-17T13:02:43;4.97;;;2.53;;
81124;SDS011;72192;52.114;5.424;2023-08-17T13:05:33;5.70;;;2.78;;
81124;SDS011;72192;52.114;5.424;2023-08-17T13:08:21;6.80;;;3.10;;
81124;SDS011;72192;52.114;5.424;2023-08-17T13:11:10;8.25;;;3.05;;
81124;SDS011;72192;52.114;5.424;2023-08-17T13:13:58;6.05;;;2.67;;
81124;SDS011;72192;52.114;5.424;2023-08-17T13:16:46;5.28;;;2.58;;
81124;SDS011;72192;52.114;5.424;2023-08-17T13:19:34;6.72;;;2.92;;
81124;SDS011;72192;52.114;5.424;2023-08-17T13:22:25;7.20;;;2.90;;
81124;SDS011;72192;52.114;5.424;2023-08-17T13:25:13;5.30;;;2.60;;
81124;SDS011;72192;52.114;5.424;2023-08-17T13:28:01;6.07;;;2.75;;
81124;SDS011;72192;52.114;5.424;2023-08-17T13:30:50;8.98;;;2.97;;
81124;SDS011;72192;52.114;5.424;2023-08-17T13:33:38;6.15;;;3.22;;
81124;SDS011;72192;52.114;5.424;2023-08-17T13:36:26;6.82;;;3.05;;
81124;SDS011;72192;52.114;5.424;2023-08-17T13:39:15;5.43;;;2.95;;
81124;SDS011;72192;52.114;5.424;2023-08-17T13:42:03;6.00;;;2.80;;
81124;SDS011;72192;52.114;5.424;2023-08-17T13:44:32;6.82;;;3.25;;
81124;SDS011;72192;52.114;5.424;2023-08-17T13:47:20;5.95;;;2.58;;
81124;SDS011;72192;52.114;5.424;2023-08-17T13:50:08;7.20;;;2.80;;
81124;SDS011;72192;52.114;5.424;2023-08-17T13:52:57;6.80;;;2.58;;
81124;SDS011;72192;52.114;5.424;2023-08-17T13:55:46;6.60;;;2.85;;
81124;SDS011;72192;52.114;5.424;2023-08-17T13:58:34;4.97;;;2.67;;
81124;SDS011;72192;52.114;5.424;2023-08-17T14:01:23;6.18;;;2.55;;
81124;SDS011;72192;52.114;5.424;2023-08-17T14:04:11;6.40;;;3.05;;
81124;SDS011;72192;52.114;5.424;2023-08-17T14:07:00;6.55;;;2.95;;
81124;SDS011;72192;52.114;5.424;2023-08-17T14:09:48;6.55;;;2.63;;
81124;SDS011;72192;52.114;5.424;2023-08-17T14:12:36;8.13;;;3.00;;
81124;SDS011;72192;52.114;5.424;2023-08-17T14:15:25;5.70;;;2.63;;
81124;SDS011;72192;52.114;5.424;2023-08-17T14:18:13;5.82;;;3.10;;
81124;SDS011;72192;52.114;5.424;2023-08-17T14:20:56;6.30;;;3.00;;
81124;SDS011;72192;52.114;5.424;2023-08-17T14:23:37;6.15;;;3.00;;
81124;SDS011;72192;52.114;5.424;2023-08-17T14:26:18;6.90;;;3.50;;
81124;SDS011;72192;52.114;5.424;2023-08-17T14:28:57;6.40;;;3.70;;
81124;SDS011;72192;52.114;5.424;2023-08-17T14:31:37;7.90;;;3.38;;
81124;SDS011;72192;52.114;5.424;2023-08-17T14:34:17;9.75;;;3.72;;
81124;SDS011;72192;52.114;5.424;2023-08-17T14:36:57;7.55;;;3.35;;
81124;SDS011;72192;52.114;5.424;2023-08-17T14:39:37;7.18;;;3.78;;
81124;SDS011;72192;52.114;5.424;2023-08-17T14:42:17;7.35;;;3.22;;
81124;SDS011;72192;52.114;5.424;2023-08-17T14:44:56;6.68;;;3.50;;
81124;SDS011;72192;52.114;5.424;2023-08-17T14:47:36;7.47;;;3.25;;
81124;SDS011;72192;52.114;5.424;2023-08-17T14:50:24;6.50;;;3.08;;
81124;SDS011;72192;52.114;5.424;2023-08-17T14:53:13;6.82;;;3.40;;
81124;SDS011;72192;52.114;5.424;2023-08-17T14:56:01;6.68;;;3.47;;
81124;SDS011;72192;52.114;5.424;2023-08-17T14:58:49;6.43;;;3.25;;
81124;SDS011;72192;52.114;5.424;2023-08-17T15:01:37;8.48;;;3.92;;
81124;SDS011;72192;52.114;5.424;2023-08-17T15:04:06;8.30;;;3.72;;
81124;SDS011;72192;52.114;5.424;2023-08-17T15:06:34;7.22;;;3.90;;
81124;SDS011;72192;52.114;5.424;2023-08-17T15:09:08;6.60;;;3.53;;
81124;SDS011;72192;52.114;5.424;2023-08-17T15:11:56;9.43;;;3.63;;
81124;SDS011;72192;52.114;5.424;2023-08-17T15:14:44;7.32;;;3.50;;
81124;SDS011;72192;52.114;5.424;2023-08-17T15:17:13;8.70;;;3.55;;
81124;SDS011;72192;52.114;5.424;2023-08-17T15:19:41;7.65;;;3.53;;
81124;SDS011;72192;52.114;5.424;2023-08-17T15:22:09;9.40;;;3.92;;
81124;SDS011;72192;52.114;5.424;2023-08-17T15:24:40;8.95;;;4.60;;
81124;SDS011;72192;52.114;5.424;2023-08-17T15:27:32;10.07;;;4.65;;
81124;SDS011;72192;52.114;5.424;2023-08-17T15:30:00;8.98;;;3.85;;
81124;SDS011;72192;52.114;5.424;2023-08-17T15:32:49;7.85;;;4.15;;
81124;SDS011;72192;52.114;5.424;2023-08-17T15:35:17;7.13;;;3.92;;
81124;SDS011;72192;52.114;5.424;2023-08-17T15:37:46;10.00;;;4.22;;
81124;SDS011;72192;52.114;5.424;2023-08-17T15:40:15;8.88;;;4.47;;
81124;SDS011;72192;52.114;5.424;2023-08-17T15:43:03;10.43;;;5.70;;
81124;SDS011;72192;52.114;5.424;2023-08-17T15:45:51;9.95;;;4.35;;
81124;SDS011;72192;52.114;5.424;2023-08-17T15:48:39;8.45;;;4.05;;
81124;SDS011;72192;52.114;5.424;2023-08-17T15:51:28;8.45;;;4.30;;
81124;SDS011;72192;52.114;5.424;2023-08-17T15:54:16;11.00;;;4.90;;
81124;SDS011;72192;52.114;5.424;2023-08-17T15:57:05;11.02;;;4.50;;
81124;SDS011;72192;52.114;5.424;2023-08-17T15:59:53;8.85;;;4.28;;
81124;SDS011;72192;52.114;5.424;2023-08-17T16:02:39;9.38;;;4.63;;
81124;SDS011;72192;52.114;5.424;2023-08-17T16:05:19;8.95;;;5.13;;
81124;SDS011;72192;52.114;5.424;2023-08-17T16:08:07;8.32;;;4.72;;
81124;SDS011;72192;52.114;5.424;2023-08-17T16:10:55;9.60;;;4.38;;
81124;SDS011;72192;52.114;5.424;2023-08-17T16:13:44;7.82;;;4.30;;
81124;SDS011;72192;52.114;5.424;2023-08-17T16:16:25;8.77;;;4.60;;
81124;SDS011;72192;52.114;5.424;2023-08-17T16:19:15;8.15;;;4.97;;
81124;SDS011;72192;52.114;5.424;2023-08-17T16:22:02;11.43;;;5.00;;
81124;SDS011;72192;52.114;5.424;2023-08-17T16:24:50;9.43;;;4.90;;
81124;SDS011;72192;52.114;5.424;2023-08-17T16:27:38;9.23;;;4.80;;
81124;SDS011;72192;52.114;5.424;2023-08-17T16:30:26;11.02;;;5.60;;
81124;SDS011;72192;52.114;5.424;2023-08-17T16:33:15;10.30;;;5.05;;
81124;SDS011;72192;52.114;5.424;2023-08-17T16:36:03;12.07;;;5.53;;
81124;SDS011;72192;52.114;5.424;2023-08-17T16:38:52;7.53;;;4.40;;
81124;SDS011;72192;52.114;5.424;2023-08-17T16:41:21;10.75;;;5.65;;
81124;SDS011;72192;52.114;5.424;2023-08-17T16:44:09;8.73;;;5.10;;
81124;SDS011;72192;52.114;5.424;2023-08-17T16:46:57;8.90;;;5.10;;
81124;SDS011;72192;52.114;5.424;2023-08-17T16:49:45;9.93;;;5.03;;
81124;SDS011;72192;52.114;5.424;2023-08-17T16:52:26;10.15;;;5.80;;
81124;SDS011;72192;52.114;5.424;2023-08-17T16:55:16;8.20;;;5.10;;
81124;SDS011;72192;52.114;5.424;2023-08-17T16:58:02;9.27;;;4.93;;
81124;SDS011;72192;52.114;5.424;2023-08-17T17:00:42;9.70;;;5.85;;
81124;SDS011;72192;52.114;5.424;2023-08-17T17:03:31;10.38;;;5.85;;
81124;SDS011;72192;52.114;5.424;2023-08-17T17:06:13;9.93;;;5.65;;
81124;SDS011;72192;52.114;5.424;2023-08-17T17:08:52;10.90;;;5.95;;
81124;SDS011;72192;52.114;5.424;2023-08-17T17:11:40;10.98;;;6.30;;
81124;SDS011;72192;52.114;5.424;2023-08-17T17:14:29;10.73;;;5.53;;
81124;SDS011;72192;52.114;5.424;2023-08-17T17:17:18;10.13;;;6.05;;
81124;SDS011;72192;52.114;5.424;2023-08-17T17:20:06;11.52;;;6.25;;
81124;SDS011;72192;52.114;5.424;2023-08-17T17:22:47;10.35;;;5.80;;
81124;SDS011;72192;52.114;5.424;2023-08-17T17:25:26;10.57;;;5.57;;
81124;SDS011;72192;52.114;5.424;2023-08-17T17:28:15;10.70;;;6.18;;
81124;SDS011;72192;52.114;5.424;2023-08-17T17:31:00;10.02;;;6.68;;
81124;SDS011;72192;52.114;5.424;2023-08-17T17:33:55;9.65;;;6.18;;
81124;SDS011;72192;52.114;5.424;2023-08-17T17:36:44;12.63;;;6.03;;
81124;SDS011;72192;52.114;5.424;2023-08-17T17:39:33;10.10;;;6.13;;
81124;SDS011;72192;52.114;5.424;2023-08-17T17:42:18;11.55;;;5.78;;
81124;SDS011;72192;52.114;5.424;2023-08-17T17:44:59;11.43;;;5.85;;
81124;SDS011;72192;52.114;5.424;2023-08-17T17:47:39;10.18;;;6.03;;
81124;SDS011;72192;52.114;5.424;2023-08-17T17:50:29;10.85;;;5.35;;
81124;SDS011;72192;52.114;5.424;2023-08-17T17:53:17;10.43;;;5.47;;
81124;SDS011;72192;52.114;5.424;2023-08-17T17:56:11;11.25;;;5.93;;
81124;SDS011;72192;52.114;5.424;2023-08-17T17:58:59;13.23;;;5.85;;
81124;SDS011;72192;52.114;5.424;2023-08-17T18:01:48;10.48;;;6.43;;
81124;SDS011;72192;52.114;5.424;2023-08-17T18:04:27;10.52;;;6.30;;
81124;SDS011;72192;52.114;5.424;2023-08-17T18:07:15;11.68;;;6.68;;
81124;SDS011;72192;52.114;5.424;2023-08-17T18:10:04;9.15;;;5.85;;
81124;SDS011;72192;52.114;5.424;2023-08-17T18:12:46;10.50;;;6.07;;
81124;SDS011;72192;52.114;5.424;2023-08-17T18:15:35;12.18;;;7.22;;
81124;SDS011;72192;52.114;5.424;2023-08-17T18:18:23;10.13;;;6.53;;
81124;SDS011;72192;52.114;5.424;2023-08-17T18:21:11;10.70;;;6.60;;
81124;SDS011;72192;52.114;5.424;2023-08-17T18:23:58;11.50;;;7.53;;